sensor_id;sensor_type;location;lat;lon;timestamp;P1;durP1;ratioP1;P2;durP2;ratioP2
71626;SDS011;59475;52.464;13.590;2023-04-15T00:02:14;17.08;;;8.88;;
71626;SDS011;59475;52.464;13.590;2023-04-15T00:04:46;19.95;;;9.25;;
71626;SDS011;59475;52.464;13.590;2023-04-15T00:07:13;15.63;;;8.27;;
71626;SDS011;59475;52.464;13.590;2023-04-15T00:09:39;18.93;;;9.07;;
71626;SDS011;59475;52.464;13.590;2023-04-15T00:12:06;16.38;;;8.55;;
71626;SDS011;59475;52.464;13.590;2023-04-15T00:14:33;18.08;;;8.70;;
71626;SDS011;59475;52.464;13.590;2023-04-15T00:16:59;18.40;;;9.13;;
71626;SDS011;59475;52.464;13.590;2023-04-15T00:19:25;16.80;;;8.93;;
71626;SDS011;59475;52.464;13.590;2023-04-15T00:21:50;16.13;;;8.63;;
71626;SDS011;59475;52.464;13.590;2023-04-15T00:24:16;17.30;;;8.80;;
71626;SDS011;59475;52.464;13.590;2023-04-15T00:26:41;21.40;;;8.85;;
71626;SDS011;59475;52.464;13.590;2023-04-15T00:29:07;20.67;;;10.33;;
71626;SDS011;59475;52.464;13.590;2023-04-15T00:31:32;20.67;;;10.83;;
71626;SDS011;59475;52.464;13.590;2023-04-15T00:33:57;17.77;;;9.60;;
71626;SDS011;59475;52.464;13.590;2023-04-15T00:36:23;19.45;;;8.23;;
71626;SDS011;59475;52.464;13.590;2023-04-15T00:38:50;20.30;;;11.27;;
71626;SDS011;59475;52.464;13.590;2023-04-15T00:41:15;23.90;;;10.53;;
71626;SDS011;59475;52.464;13.590;2023-04-15T00:43:43;19.33;;;9.23;;
71626;SDS011;59475;52.464;13.590;2023-04-15T00:46:09;21.40;;;9.68;;
71626;SDS011;59475;52.464;13.590;2023-04-15T00:48:38;21.30;;;10.03;;
71626;SDS011;59475;52.464;13.590;2023-04-15T00:51:03;18.98;;;10.27;;
71626;SDS011;59475;52.464;13.590;2023-04-15T00:53:29;20.87;;;10.20;;
71626;SDS011;59475;52.464;13.590;2023-04-15T00:55:54;26.17;;;9.90;;
71626;SDS011;59475;52.464;13.590;2023-04-15T00:58:20;20.40;;;10.43;;
71626;SDS011;59475;52.464;13.590;2023-04-15T01:00:45;20.10;;;8.33;;
71626;SDS011;59475;52.464;13.590;2023-04-15T01:03:11;19.70;;;9.75;;
71626;SDS011;59475;52.464;13.590;2023-04-15T01:05:38;20.42;;;9.85;;
71626;SDS011;59475;52.464;13.590;2023-04-15T01:08:03;22.20;;;10.20;;
71626;SDS011;59475;52.464;13.590;2023-04-15T01:10:30;19.52;;;9.60;;
71626;SDS011;59475;52.464;13.590;2023-04-15T01:12:55;26.10;;;10.75;;
71626;SDS011;59475;52.464;13.590;2023-04-15T01:15:21;41.70;;;21.00;;
71626;SDS011;59475;52.464;13.590;2023-04-15T01:17:47;45.60;;;22.80;;
71626;SDS011;59475;52.464;13.590;2023-04-15T01:20:12;46.37;;;20.37;;
71626;SDS011;59475;52.464;13.590;2023-04-15T01:22:39;46.47;;;21.50;;
71626;SDS011;59475;52.464;13.590;2023-04-15T01:25:07;47.50;;;22.10;;
71626;SDS011;59475;52.464;13.590;2023-04-15T01:27:34;44.63;;;21.27;;
71626;SDS011;59475;52.464;13.590;2023-04-15T01:30:04;43.28;;;21.63;;
71626;SDS011;59475;52.464;13.590;2023-04-15T01:32:30;44.67;;;21.05;;
71626;SDS011;59475;52.464;13.590;2023-04-15T01:34:55;45.53;;;21.20;;
71626;SDS011;59475;52.464;13.590;2023-04-15T01:37:21;47.10;;;22.27;;
71626;SDS011;59475;52.464;13.590;2023-04-15T01:39:46;46.55;;;22.30;;
71626;SDS011;59475;52.464;13.590;2023-04-15T01:42:12;46.57;;;21.70;;
71626;SDS011;59475;52.464;13.590;2023-04-15T01:44:37;48.90;;;22.03;;
71626;SDS011;59475;52.464;13.590;2023-04-15T01:47:02;44.67;;;22.40;;
71626;SDS011;59475;52.464;13.590;2023-04-15T01:49:28;43.13;;;21.40;;
71626;SDS011;59475;52.464;13.590;2023-04-15T01:51:53;46.42;;;20.80;;
71626;SDS011;59475;52.464;13.590;2023-04-15T01:54:18;45.00;;;21.60;;
71626;SDS011;59475;52.464;13.590;2023-04-15T01:56:44;42.10;;;21.30;;
71626;SDS011;59475;52.464;13.590;2023-04-15T01:59:09;42.20;;;20.83;;
71626;SDS011;59475;52.464;13.590;2023-04-15T02:01:35;40.53;;;20.90;;
71626;SDS011;59475;52.464;13.590;2023-04-15T02:04:00;41.43;;;20.10;;
71626;SDS011;59475;52.464;13.590;2023-04-15T02:06:26;49.65;;;21.48;;
71626;SDS011;59475;52.464;13.590;2023-04-15T02:08:52;46.13;;;21.13;;
71626;SDS011;59475;52.464;13.590;2023-04-15T02:11:17;47.00;;;21.77;;
71626;SDS011;59475;52.464;13.590;2023-04-15T02:13:43;46.42;;;22.17;;
71626;SDS011;59475;52.464;13.590;2023-04-15T02:16:16;51.93;;;22.03;;
71626;SDS011;59475;52.464;13.590;2023-04-15T02:18:45;43.40;;;22.10;;
71626;SDS011;59475;52.464;13.590;2023-04-15T02:21:11;47.17;;;22.25;;
71626;SDS011;59475;52.464;13.590;2023-04-15T02:23:37;46.30;;;22.05;;
71626;SDS011;59475;52.464;13.590;2023-04-15T02:26:02;44.20;;;22.03;;
71626;SDS011;59475;52.464;13.590;2023-04-15T02:28:28;48.53;;;21.47;;
71626;SDS011;59475;52.464;13.590;2023-04-15T02:30:53;50.57;;;21.33;;
71626;SDS011;59475;52.464;13.590;2023-04-15T02:33:21;45.63;;;21.65;;
71626;SDS011;59475;52.464;13.590;2023-04-15T02:35:46;43.43;;;20.97;;
71626;SDS011;59475;52.464;13.590;2023-04-15T02:38:12;46.03;;;21.38;;
71626;SDS011;59475;52.464;13.590;2023-04-15T02:40:38;40.57;;;19.33;;
71626;SDS011;59475;52.464;13.590;2023-04-15T02:43:04;46.17;;;20.23;;
71626;SDS011;59475;52.464;13.590;2023-04-15T02:45:31;39.33;;;17.73;;
71626;SDS011;59475;52.464;13.590;2023-04-15T02:47:57;44.60;;;20.75;;
71626;SDS011;59475;52.464;13.590;2023-04-15T02:50:22;44.85;;;21.48;;
71626;SDS011;59475;52.464;13.590;2023-04-15T02:52:49;44.90;;;21.73;;
71626;SDS011;59475;52.464;13.590;2023-04-15T02:55:14;46.08;;;21.17;;
71626;SDS011;59475;52.464;13.590;2023-04-15T02:57:42;41.03;;;20.50;;
71626;SDS011;59475;52.464;13.590;2023-04-15T03:00:07;44.33;;;20.53;;
71626;SDS011;59475;52.464;13.590;2023-04-15T03:02:36;37.50;;;18.08;;
71626;SDS011;59475;52.464;13.590;2023-04-15T03:05:03;41.53;;;20.70;;
71626;SDS011;59475;52.464;13.590;2023-04-15T03:07:30;40.28;;;19.80;;
71626;SDS011;59475;52.464;13.590;2023-04-15T03:09:55;41.60;;;19.70;;
71626;SDS011;59475;52.464;13.590;2023-04-15T03:12:21;40.77;;;19.07;;
71626;SDS011;59475;52.464;13.590;2023-04-15T03:14:46;38.47;;;19.92;;
71626;SDS011;59475;52.464;13.590;2023-04-15T03:17:12;37.50;;;18.97;;
71626;SDS011;59475;52.464;13.590;2023-04-15T03:19:37;37.00;;;20.30;;
71626;SDS011;59475;52.464;13.590;2023-04-15T03:22:02;39.07;;;19.07;;
71626;SDS011;59475;52.464;13.590;2023-04-15T03:24:28;39.57;;;19.73;;
71626;SDS011;59475;52.464;13.590;2023-04-15T03:26:54;41.70;;;19.92;;
71626;SDS011;59475;52.464;13.590;2023-04-15T03:29:20;42.30;;;21.35;;
71626;SDS011;59475;52.464;13.590;2023-04-15T03:31:45;35.13;;;19.40;;
71626;SDS011;59475;52.464;13.590;2023-04-15T03:34:11;44.33;;;20.07;;
71626;SDS011;59475;52.464;13.590;2023-04-15T03:36:36;35.55;;;19.08;;
71626;SDS011;59475;52.464;13.590;2023-04-15T03:39:02;43.23;;;20.03;;
71626;SDS011;59475;52.464;13.590;2023-04-15T03:41:28;40.17;;;20.60;;
71626;SDS011;59475;52.464;13.590;2023-04-15T03:43:53;36.90;;;19.70;;
71626;SDS011;59475;52.464;13.590;2023-04-15T03:46:19;36.07;;;18.33;;
71626;SDS011;59475;52.464;13.590;2023-04-15T03:48:45;32.55;;;17.90;;
71626;SDS011;59475;52.464;13.590;2023-04-15T03:51:11;35.35;;;19.70;;
71626;SDS011;59475;52.464;13.590;2023-04-15T03:53:36;36.73;;;19.70;;
71626;SDS011;59475;52.464;13.590;2023-04-15T03:56:02;39.00;;;20.70;;
71626;SDS011;59475;52.464;13.590;2023-04-15T03:58:27;42.57;;;20.90;;
71626;SDS011;59475;52.464;13.590;2023-04-15T04:00:52;39.40;;;18.90;;
71626;SDS011;59475;52.464;13.590;2023-04-15T04:03:18;36.60;;;19.40;;
71626;SDS011;59475;52.464;13.590;2023-04-15T04:05:44;34.97;;;19.37;;
71626;SDS011;59475;52.464;13.590;2023-04-15T04:08:09;36.25;;;19.20;;
71626;SDS011;59475;52.464;13.590;2023-04-15T04:10:37;31.57;;;18.03;;
71626;SDS011;59475;52.464;13.590;2023-04-15T04:13:03;35.95;;;17.95;;
71626;SDS011;59475;52.464;13.590;2023-04-15T04:15:28;39.07;;;20.67;;
71626;SDS011;59475;52.464;13.590;2023-04-15T04:17:54;34.03;;;18.77;;
71626;SDS011;59475;52.464;13.590;2023-04-15T04:20:20;36.40;;;18.23;;
71626;SDS011;59475;52.464;13.590;2023-04-15T04:22:45;33.10;;;18.07;;
71626;SDS011;59475;52.464;13.590;2023-04-15T04:25:11;33.45;;;18.73;;
71626;SDS011;59475;52.464;13.590;2023-04-15T04:27:36;36.23;;;19.90;;
71626;SDS011;59475;52.464;13.590;2023-04-15T04:30:02;32.07;;;17.77;;
71626;SDS011;59475;52.464;13.590;2023-04-15T04:32:27;39.03;;;19.88;;
71626;SDS011;59475;52.464;13.590;2023-04-15T04:34:53;32.47;;;18.63;;
71626;SDS011;59475;52.464;13.590;2023-04-15T04:37:18;33.10;;;18.50;;
71626;SDS011;59475;52.464;13.590;2023-04-15T04:39:43;31.57;;;17.53;;
71626;SDS011;59475;52.464;13.590;2023-04-15T04:42:09;31.77;;;17.30;;
71626;SDS011;59475;52.464;13.590;2023-04-15T04:44:35;30.55;;;18.08;;
71626;SDS011;59475;52.464;13.590;2023-04-15T04:47:00;36.83;;;18.53;;
71626;SDS011;59475;52.464;13.590;2023-04-15T04:49:25;32.70;;;17.07;;
71626;SDS011;59475;52.464;13.590;2023-04-15T04:51:51;37.97;;;17.57;;
71626;SDS011;59475;52.464;13.590;2023-04-15T04:54:17;29.70;;;15.48;;
71626;SDS011;59475;52.464;13.590;2023-04-15T04:56:42;30.60;;;17.93;;
71626;SDS011;59475;52.464;13.590;2023-04-15T04:59:07;32.20;;;17.13;;
71626;SDS011;59475;52.464;13.590;2023-04-15T05:01:33;30.55;;;16.45;;
71626;SDS011;59475;52.464;13.590;2023-04-15T05:03:59;30.23;;;17.07;;
71626;SDS011;59475;52.464;13.590;2023-04-15T05:06:24;28.35;;;16.27;;
71626;SDS011;59475;52.464;13.590;2023-04-15T05:08:50;23.97;;;14.20;;
71626;SDS011;59475;52.464;13.590;2023-04-15T05:11:16;29.65;;;16.08;;
71626;SDS011;59475;52.464;13.590;2023-04-15T05:13:41;22.50;;;15.37;;
71626;SDS011;59475;52.464;13.590;2023-04-15T05:16:06;23.60;;;14.80;;
71626;SDS011;59475;52.464;13.590;2023-04-15T05:18:32;23.90;;;14.83;;
71626;SDS011;59475;52.464;13.590;2023-04-15T05:20:58;24.27;;;14.73;;
71626;SDS011;59475;52.464;13.590;2023-04-15T05:23:23;24.02;;;14.45;;
71626;SDS011;59475;52.464;13.590;2023-04-15T05:25:49;21.80;;;13.87;;
71626;SDS011;59475;52.464;13.590;2023-04-15T05:28:14;22.00;;;13.73;;
71626;SDS011;59475;52.464;13.590;2023-04-15T05:30:40;22.50;;;14.18;;
71626;SDS011;59475;52.464;13.590;2023-04-15T05:33:06;22.43;;;13.67;;
71626;SDS011;59475;52.464;13.590;2023-04-15T05:35:31;18.57;;;12.50;;
71626;SDS011;59475;52.464;13.590;2023-04-15T05:37:56;19.10;;;13.15;;
71626;SDS011;59475;52.464;13.590;2023-04-15T05:40:22;20.47;;;11.93;;
71626;SDS011;59475;52.464;13.590;2023-04-15T05:42:48;19.95;;;13.15;;
71626;SDS011;59475;52.464;13.590;2023-04-15T05:45:13;18.40;;;12.40;;
71626;SDS011;59475;52.464;13.590;2023-04-15T05:47:39;16.77;;;10.93;;
71626;SDS011;59475;52.464;13.590;2023-04-15T05:50:04;20.57;;;12.23;;
71626;SDS011;59475;52.464;13.590;2023-04-15T05:52:30;16.63;;;12.20;;
71626;SDS011;59475;52.464;13.590;2023-04-15T05:54:56;16.30;;;11.93;;
71626;SDS011;59475;52.464;13.590;2023-04-15T05:57:21;17.97;;;12.17;;
71626;SDS011;59475;52.464;13.590;2023-04-15T05:59:47;17.37;;;10.83;;
71626;SDS011;59475;52.464;13.590;2023-04-15T06:02:13;16.00;;;10.98;;
71626;SDS011;59475;52.464;13.590;2023-04-15T06:04:38;17.33;;;11.00;;
71626;SDS011;59475;52.464;13.590;2023-04-15T06:07:04;16.27;;;11.73;;
71626;SDS011;59475;52.464;13.590;2023-04-15T06:09:29;17.13;;;11.52;;
71626;SDS011;59475;52.464;13.590;2023-04-15T06:11:57;15.17;;;11.07;;
71626;SDS011;59475;52.464;13.590;2023-04-15T06:14:23;17.83;;;12.00;;
71626;SDS011;59475;52.464;13.590;2023-04-15T06:16:48;17.33;;;11.03;;
71626;SDS011;59475;52.464;13.590;2023-04-15T06:19:13;15.17;;;10.87;;
71626;SDS011;59475;52.464;13.590;2023-04-15T06:21:39;15.10;;;10.68;;
71626;SDS011;59475;52.464;13.590;2023-04-15T06:24:05;18.30;;;10.60;;
71626;SDS011;59475;52.464;13.590;2023-04-15T06:26:30;16.08;;;11.10;;
71626;SDS011;59475;52.464;13.590;2023-04-15T06:28:56;17.27;;;11.40;;
71626;SDS011;59475;52.464;13.590;2023-04-15T06:31:21;13.57;;;8.90;;
71626;SDS011;59475;52.464;13.590;2023-04-15T06:33:47;13.13;;;9.97;;
71626;SDS011;59475;52.464;13.590;2023-04-15T06:36:12;18.27;;;10.60;;
71626;SDS011;59475;52.464;13.590;2023-04-15T06:38:38;14.33;;;10.03;;
71626;SDS011;59475;52.464;13.590;2023-04-15T06:41:03;12.53;;;9.50;;
71626;SDS011;59475;52.464;13.590;2023-04-15T06:43:29;13.82;;;9.88;;
71626;SDS011;59475;52.464;13.590;2023-04-15T06:45:54;15.30;;;10.50;;
71626;SDS011;59475;52.464;13.590;2023-04-15T06:48:20;13.70;;;9.68;;
71626;SDS011;59475;52.464;13.590;2023-04-15T06:50:46;13.98;;;10.00;;
71626;SDS011;59475;52.464;13.590;2023-04-15T06:53:15;14.87;;;9.63;;
71626;SDS011;59475;52.464;13.590;2023-04-15T06:55:40;12.75;;;9.10;;
71626;SDS011;59475;52.464;13.590;2023-04-15T06:58:06;13.43;;;10.07;;
71626;SDS011;59475;52.464;13.590;2023-04-15T07:00:32;12.55;;;9.18;;
71626;SDS011;59475;52.464;13.590;2023-04-15T07:02:58;14.75;;;9.95;;
71626;SDS011;59475;52.464;13.590;2023-04-15T07:05:26;13.68;;;7.82;;
71626;SDS011;59475;52.464;13.590;2023-04-15T07:07:52;12.27;;;9.07;;
71626;SDS011;59475;52.464;13.590;2023-04-15T07:10:17;14.10;;;9.30;;
71626;SDS011;59475;52.464;13.590;2023-04-15T07:12:43;15.03;;;9.80;;
71626;SDS011;59475;52.464;13.590;2023-04-15T07:15:08;16.52;;;10.48;;
71626;SDS011;59475;52.464;13.590;2023-04-15T07:17:34;13.53;;;9.10;;
71626;SDS011;59475;52.464;13.590;2023-04-15T07:20:00;14.07;;;10.07;;
71626;SDS011;59475;52.464;13.590;2023-04-15T07:22:25;16.57;;;9.13;;
71626;SDS011;59475;52.464;13.590;2023-04-15T07:24:50;14.17;;;9.90;;
71626;SDS011;59475;52.464;13.590;2023-04-15T07:27:16;14.63;;;10.03;;
71626;SDS011;59475;52.464;13.590;2023-04-15T07:29:42;12.27;;;9.45;;
71626;SDS011;59475;52.464;13.590;2023-04-15T07:32:07;15.60;;;9.03;;
71626;SDS011;59475;52.464;13.590;2023-04-15T07:34:34;17.30;;;10.00;;
71626;SDS011;59475;52.464;13.590;2023-04-15T07:36:59;14.00;;;9.50;;
71626;SDS011;59475;52.464;13.590;2023-04-15T07:39:25;13.53;;;10.17;;
71626;SDS011;59475;52.464;13.590;2023-04-15T07:41:51;18.33;;;10.32;;
71626;SDS011;59475;52.464;13.590;2023-04-15T07:44:16;14.30;;;9.57;;
71626;SDS011;59475;52.464;13.590;2023-04-15T07:46:41;15.30;;;11.50;;
71626;SDS011;59475;52.464;13.590;2023-04-15T07:49:07;18.23;;;11.23;;
71626;SDS011;59475;52.464;13.590;2023-04-15T07:51:32;15.03;;;10.23;;
71626;SDS011;59475;52.464;13.590;2023-04-15T07:53:58;15.45;;;11.07;;
71626;SDS011;59475;52.464;13.590;2023-04-15T07:56:23;14.13;;;10.80;;
71626;SDS011;59475;52.464;13.590;2023-04-15T07:58:48;14.47;;;9.77;;
71626;SDS011;59475;52.464;13.590;2023-04-15T08:01:14;15.17;;;11.37;;
71626;SDS011;59475;52.464;13.590;2023-04-15T08:03:40;16.30;;;10.60;;
71626;SDS011;59475;52.464;13.590;2023-04-15T08:06:05;19.73;;;12.13;;
71626;SDS011;59475;52.464;13.590;2023-04-15T08:08:31;14.50;;;11.17;;
71626;SDS011;59475;52.464;13.590;2023-04-15T08:10:57;15.63;;;11.03;;
71626;SDS011;59475;52.464;13.590;2023-04-15T08:13:22;15.05;;;11.13;;
71626;SDS011;59475;52.464;13.590;2023-04-15T08:15:52;14.43;;;11.97;;
71626;SDS011;59475;52.464;13.590;2023-04-15T08:18:38;15.98;;;11.18;;
71626;SDS011;59475;52.464;13.590;2023-04-15T08:21:03;15.23;;;11.90;;
71626;SDS011;59475;52.464;13.590;2023-04-15T08:23:29;16.50;;;12.23;;
71626;SDS011;59475;52.464;13.590;2023-04-15T08:25:56;14.70;;;11.15;;
71626;SDS011;59475;52.464;13.590;2023-04-15T08:28:21;12.63;;;9.13;;
71626;SDS011;59475;52.464;13.590;2023-04-15T08:30:47;16.80;;;11.83;;
71626;SDS011;59475;52.464;13.590;2023-04-15T08:33:13;14.50;;;11.48;;
71626;SDS011;59475;52.464;13.590;2023-04-15T08:35:38;17.13;;;11.70;;
71626;SDS011;59475;52.464;13.590;2023-04-15T08:38:03;15.10;;;11.73;;
71626;SDS011;59475;52.464;13.590;2023-04-15T08:40:30;18.10;;;11.53;;
71626;SDS011;59475;52.464;13.590;2023-04-15T08:43:07;16.75;;;11.50;;
71626;SDS011;59475;52.464;13.590;2023-04-15T08:45:35;16.05;;;11.40;;
71626;SDS011;59475;52.464;13.590;2023-04-15T08:48:03;18.15;;;11.70;;
71626;SDS011;59475;52.464;13.590;2023-04-15T08:50:30;15.27;;;10.75;;
71626;SDS011;59475;52.464;13.590;2023-04-15T08:52:57;14.30;;;9.57;;
71626;SDS011;59475;52.464;13.590;2023-04-15T08:55:32;15.32;;;9.73;;
71626;SDS011;59475;52.464;13.590;2023-04-15T08:58:00;15.88;;;12.15;;
71626;SDS011;59475;52.464;13.590;2023-04-15T09:00:27;18.80;;;12.82;;
71626;SDS011;59475;52.464;13.590;2023-04-15T09:02:54;18.02;;;11.68;;
71626;SDS011;59475;52.464;13.590;2023-04-15T09:05:20;17.10;;;12.33;;
71626;SDS011;59475;52.464;13.590;2023-04-15T09:07:47;19.05;;;12.45;;
71626;SDS011;59475;52.464;13.590;2023-04-15T09:10:12;17.38;;;12.30;;
71626;SDS011;59475;52.464;13.590;2023-04-15T09:12:38;16.53;;;12.87;;
71626;SDS011;59475;52.464;13.590;2023-04-15T09:15:03;15.07;;;11.57;;
71626;SDS011;59475;52.464;13.590;2023-04-15T09:17:29;19.52;;;12.80;;
71626;SDS011;59475;52.464;13.590;2023-04-15T09:20:13;16.95;;;11.07;;
71626;SDS011;59475;52.464;13.590;2023-04-15T09:22:41;13.95;;;9.30;;
71626;SDS011;59475;52.464;13.590;2023-04-15T09:27:55;18.52;;;12.27;;
71626;SDS011;59475;52.464;13.590;2023-04-15T09:30:22;18.17;;;12.90;;
71626;SDS011;59475;52.464;13.590;2023-04-15T09:32:58;16.00;;;11.10;;
71626;SDS011;59475;52.464;13.590;2023-04-15T09:35:26;14.37;;;11.03;;
71626;SDS011;59475;52.464;13.590;2023-04-15T09:37:52;15.38;;;11.27;;
71626;SDS011;59475;52.464;13.590;2023-04-15T09:40:33;14.07;;;10.63;;
71626;SDS011;59475;52.464;13.590;2023-04-15T09:43:00;16.13;;;11.70;;
71626;SDS011;59475;52.464;13.590;2023-04-15T09:45:27;12.95;;;9.95;;
71626;SDS011;59475;52.464;13.590;2023-04-15T09:47:52;16.37;;;11.87;;
71626;SDS011;59475;52.464;13.590;2023-04-15T09:50:18;15.55;;;11.73;;
71626;SDS011;59475;52.464;13.590;2023-04-15T09:52:45;14.73;;;11.07;;
71626;SDS011;59475;52.464;13.590;2023-04-15T09:55:11;15.02;;;11.55;;
71626;SDS011;59475;52.464;13.590;2023-04-15T09:57:37;15.70;;;10.43;;
71626;SDS011;59475;52.464;13.590;2023-04-15T10:00:05;18.52;;;11.05;;
71626;SDS011;59475;52.464;13.590;2023-04-15T10:02:33;14.45;;;11.27;;
71626;SDS011;59475;52.464;13.590;2023-04-15T10:04:59;13.80;;;11.13;;
71626;SDS011;59475;52.464;13.590;2023-04-15T10:07:26;14.27;;;11.60;;
71626;SDS011;59475;52.464;13.590;2023-04-15T10:09:51;13.82;;;10.73;;
71626;SDS011;59475;52.464;13.590;2023-04-15T10:12:18;12.93;;;10.63;;
71626;SDS011;59475;52.464;13.590;2023-04-15T10:14:44;16.63;;;10.32;;
71626;SDS011;59475;52.464;13.590;2023-04-15T10:17:13;15.40;;;11.93;;
71626;SDS011;59475;52.464;13.590;2023-04-15T10:19:42;16.00;;;11.77;;
71626;SDS011;59475;52.464;13.590;2023-04-15T10:22:09;13.48;;;11.15;;
71626;SDS011;59475;52.464;13.590;2023-04-15T10:24:34;14.98;;;11.65;;
71626;SDS011;59475;52.464;13.590;2023-04-15T10:27:02;15.50;;;11.80;;
71626;SDS011;59475;52.464;13.590;2023-04-15T10:29:28;12.13;;;10.13;;
71626;SDS011;59475;52.464;13.590;2023-04-15T10:32:00;12.52;;;10.32;;
71626;SDS011;59475;52.464;13.590;2023-04-15T10:34:27;14.55;;;11.25;;
71626;SDS011;59475;52.464;13.590;2023-04-15T10:36:54;14.63;;;10.98;;
71626;SDS011;59475;52.464;13.590;2023-04-15T10:42:05;16.17;;;11.35;;
71626;SDS011;59475;52.464;13.590;2023-04-15T10:44:32;13.48;;;11.10;;
71626;SDS011;59475;52.464;13.590;2023-04-15T10:46:58;11.33;;;9.33;;
71626;SDS011;59475;52.464;13.590;2023-04-15T10:49:24;15.57;;;11.13;;
71626;SDS011;59475;52.464;13.590;2023-04-15T10:51:51;13.17;;;10.90;;
71626;SDS011;59475;52.464;13.590;2023-04-15T10:59:36;12.90;;;10.57;;
71626;SDS011;59475;52.464;13.590;2023-04-15T11:02:25;14.43;;;10.38;;
71626;SDS011;59475;52.464;13.590;2023-04-15T11:05:47;13.87;;;10.70;;
71626;SDS011;59475;52.464;13.590;2023-04-15T11:08:14;14.35;;;10.07;;
71626;SDS011;59475;52.464;13.590;2023-04-15T11:16:00;16.52;;;10.70;;
71626;SDS011;59475;52.464;13.590;2023-04-15T11:18:27;14.55;;;11.10;;
71626;SDS011;59475;52.464;13.590;2023-04-15T11:20:55;12.87;;;10.50;;
71626;SDS011;59475;52.464;13.590;2023-04-15T11:23:33;13.90;;;11.05;;
71626;SDS011;59475;52.464;13.590;2023-04-15T11:26:01;13.93;;;10.57;;
71626;SDS011;59475;52.464;13.590;2023-04-15T11:28:31;12.68;;;9.82;;
71626;SDS011;59475;52.464;13.590;2023-04-15T11:30:57;12.20;;;9.55;;
71626;SDS011;59475;52.464;13.590;2023-04-15T11:33:23;13.57;;;10.30;;
71626;SDS011;59475;52.464;13.590;2023-04-15T11:35:49;12.15;;;9.82;;
71626;SDS011;59475;52.464;13.590;2023-04-15T11:38:17;10.43;;;8.18;;
71626;SDS011;59475;52.464;13.590;2023-04-15T11:40:43;14.23;;;10.80;;
71626;SDS011;59475;52.464;13.590;2023-04-15T11:43:19;13.05;;;10.80;;
71626;SDS011;59475;52.464;13.590;2023-04-15T11:45:56;13.85;;;10.65;;
71626;SDS011;59475;52.464;13.590;2023-04-15T11:48:23;14.10;;;10.50;;
71626;SDS011;59475;52.464;13.590;2023-04-15T11:50:53;14.68;;;10.45;;
71626;SDS011;59475;52.464;13.590;2023-04-15T11:53:19;14.47;;;10.53;;
71626;SDS011;59475;52.464;13.590;2023-04-15T11:55:54;14.02;;;11.32;;
71626;SDS011;59475;52.464;13.590;2023-04-15T11:58:23;13.63;;;10.55;;
71626;SDS011;59475;52.464;13.590;2023-04-15T12:03:22;12.98;;;9.93;;
71626;SDS011;59475;52.464;13.590;2023-04-15T12:06:23;11.83;;;9.43;;
71626;SDS011;59475;52.464;13.590;2023-04-15T12:14:09;11.98;;;9.93;;
71626;SDS011;59475;52.464;13.590;2023-04-15T12:16:59;9.80;;;8.13;;
71626;SDS011;59475;52.464;13.590;2023-04-15T12:21:56;13.45;;;9.75;;
71626;SDS011;59475;52.464;13.590;2023-04-15T12:24:31;12.10;;;9.30;;
71626;SDS011;59475;52.464;13.590;2023-04-15T12:27:02;11.77;;;9.07;;
71626;SDS011;59475;52.464;13.590;2023-04-15T12:29:29;11.15;;;9.10;;
71626;SDS011;59475;52.464;13.590;2023-04-15T12:34:27;11.77;;;9.52;;
71626;SDS011;59475;52.464;13.590;2023-04-15T12:36:54;11.05;;;8.70;;
71626;SDS011;59475;52.464;13.590;2023-04-15T12:39:21;12.20;;;9.57;;
71626;SDS011;59475;52.464;13.590;2023-04-15T12:41:48;12.20;;;9.38;;
71626;SDS011;59475;52.464;13.590;2023-04-15T12:44:13;10.77;;;8.17;;
71626;SDS011;59475;52.464;13.590;2023-04-15T12:46:38;10.17;;;8.07;;
71626;SDS011;59475;52.464;13.590;2023-04-15T12:49:05;10.98;;;8.30;;
71626;SDS011;59475;52.464;13.590;2023-04-15T12:51:30;9.20;;;7.30;;
71626;SDS011;59475;52.464;13.590;2023-04-15T12:53:56;11.53;;;8.20;;
71626;SDS011;59475;52.464;13.590;2023-04-15T12:56:22;9.20;;;7.60;;
71626;SDS011;59475;52.464;13.590;2023-04-15T12:58:48;10.70;;;8.82;;
71626;SDS011;59475;52.464;13.590;2023-04-15T13:01:13;10.00;;;8.23;;
71626;SDS011;59475;52.464;13.590;2023-04-15T13:03:39;9.67;;;8.00;;
71626;SDS011;59475;52.464;13.590;2023-04-15T13:06:04;9.23;;;8.02;;
71626;SDS011;59475;52.464;13.590;2023-04-15T13:08:30;9.43;;;7.50;;
71626;SDS011;59475;52.464;13.590;2023-04-15T13:10:56;10.90;;;8.50;;
71626;SDS011;59475;52.464;13.590;2023-04-15T13:13:21;9.17;;;7.90;;
71626;SDS011;59475;52.464;13.590;2023-04-15T13:15:46;9.07;;;7.40;;
71626;SDS011;59475;52.464;13.590;2023-04-15T13:18:12;10.10;;;7.73;;
71626;SDS011;59475;52.464;13.590;2023-04-15T13:20:38;10.13;;;7.10;;
71626;SDS011;59475;52.464;13.590;2023-04-15T13:23:03;9.67;;;8.07;;
71626;SDS011;59475;52.464;13.590;2023-04-15T13:25:28;8.90;;;7.30;;
71626;SDS011;59475;52.464;13.590;2023-04-15T13:27:54;7.33;;;6.57;;
71626;SDS011;59475;52.464;13.590;2023-04-15T13:30:19;10.53;;;6.97;;
71626;SDS011;59475;52.464;13.590;2023-04-15T13:32:45;8.73;;;6.93;;
71626;SDS011;59475;52.464;13.590;2023-04-15T13:35:10;10.60;;;7.20;;
71626;SDS011;59475;52.464;13.590;2023-04-15T13:37:36;8.48;;;7.05;;
71626;SDS011;59475;52.464;13.590;2023-04-15T13:40:01;9.67;;;6.57;;
71626;SDS011;59475;52.464;13.590;2023-04-15T13:42:27;8.32;;;6.68;;
71626;SDS011;59475;52.464;13.590;2023-04-15T13:44:52;8.00;;;6.83;;
71626;SDS011;59475;52.464;13.590;2023-04-15T13:47:18;8.57;;;6.93;;
71626;SDS011;59475;52.464;13.590;2023-04-15T13:49:44;8.68;;;7.13;;
71626;SDS011;59475;52.464;13.590;2023-04-15T13:52:10;9.57;;;7.77;;
71626;SDS011;59475;52.464;13.590;2023-04-15T13:54:36;8.90;;;6.80;;
71626;SDS011;59475;52.464;13.590;2023-04-15T13:57:01;9.57;;;8.60;;
71626;SDS011;59475;52.464;13.590;2023-04-15T13:59:26;10.43;;;7.15;;
71626;SDS011;59475;52.464;13.590;2023-04-15T14:01:52;8.40;;;7.17;;
71626;SDS011;59475;52.464;13.590;2023-04-15T14:04:17;8.83;;;7.30;;
71626;SDS011;59475;52.464;13.590;2023-04-15T14:06:43;8.27;;;7.07;;
71626;SDS011;59475;52.464;13.590;2023-04-15T14:09:09;8.80;;;7.10;;
71626;SDS011;59475;52.464;13.590;2023-04-15T14:11:34;9.20;;;7.35;;
71626;SDS011;59475;52.464;13.590;2023-04-15T14:14:02;6.83;;;5.70;;
71626;SDS011;59475;52.464;13.590;2023-04-15T14:16:27;8.57;;;7.05;;
71626;SDS011;59475;52.464;13.590;2023-04-15T14:18:52;8.33;;;7.03;;
71626;SDS011;59475;52.464;13.590;2023-04-15T14:21:18;8.43;;;6.77;;
71626;SDS011;59475;52.464;13.590;2023-04-15T14:23:43;9.97;;;7.60;;
71626;SDS011;59475;52.464;13.590;2023-04-15T14:26:08;7.80;;;6.93;;
71626;SDS011;59475;52.464;13.590;2023-04-15T14:28:34;8.98;;;7.45;;
71626;SDS011;59475;52.464;13.590;2023-04-15T14:31:00;9.33;;;7.50;;
71626;SDS011;59475;52.464;13.590;2023-04-15T14:33:25;9.17;;;7.60;;
71626;SDS011;59475;52.464;13.590;2023-04-15T14:35:50;8.40;;;7.20;;
71626;SDS011;59475;52.464;13.590;2023-04-15T14:38:16;9.73;;;7.63;;
71626;SDS011;59475;52.464;13.590;2023-04-15T14:40:41;8.10;;;6.30;;